createdAt,value
2019-01-09T00:00:30.025Z,3.74
2019-01-09T00:02:57.832Z,3.69
2019-01-09T00:05:28.401Z,3.67
2019-01-09T00:07:55.239Z,3.67
2019-01-09T00:10:23.033Z,3.65
2019-01-09T00:12:50.653Z,3.60
2019-01-09T00:15:18.419Z,3.59
2019-01-09T00:17:46.079Z,3.62
2019-01-09T00:20:13.758Z,3.61
2019-01-09T00:22:41.439Z,3.60
2019-01-09T00:25:09.288Z,3.66
2019-01-09T00:27:36.949Z,3.64
2019-01-09T00:30:05.019Z,3.63
2019-01-09T00:32:32.633Z,3.58
2019-01-09T00:35:00.410Z,3.50
2019-01-09T00:37:28.038Z,3.41
2019-01-09T00:39:55.839Z,3.32
2019-01-09T00:42:24.564Z,3.34
2019-01-09T00:44:52.414Z,3.36
2019-01-09T00:47:20.928Z,3.31
2019-01-09T00:49:48.751Z,3.23
2019-01-09T00:52:16.525Z,3.23
2019-01-09T00:54:44.347Z,3.09
2019-01-09T00:57:12.113Z,3.10
2019-01-09T00:59:40.951Z,3.11
2019-01-09T01:02:29.698Z,3.14
2019-01-09T01:05:45.761Z,3.09
2019-01-09T01:08:53.843Z,3.09
2019-01-09T01:11:58.109Z,3.08
2019-01-09T01:15:12.252Z,3.09
2019-01-09T01:18:10.439Z,2.99
2019-01-09T01:21:11.778Z,2.98
2019-01-09T01:24:23.762Z,2.99
2019-01-09T01:27:15.198Z,3.04
2019-01-09T01:30:22.997Z,3.04
2019-01-09T01:33:32.259Z,3.04
2019-01-09T01:36:41.976Z,2.96
2019-01-09T01:39:35.513Z,2.98
2019-01-09T01:42:53.539Z,3.02
2019-01-09T01:45:46.983Z,3.05
2019-01-09T01:48:40.988Z,3.01
2019-01-09T01:51:52.798Z,2.99
2019-01-09T01:54:52.817Z,3.01
2019-01-09T01:58:14.260Z,3.01
2019-01-09T02:01:26.033Z,2.98
2019-01-09T02:04:12.769Z,2.96
2019-01-09T02:07:37.299Z,3.01
2019-01-09T02:10:41.391Z,2.99
2019-01-09T02:13:22.103Z,2.97
2019-01-09T02:16:30.564Z,3.02
2019-01-09T02:19:18.958Z,3.01
2019-01-09T02:22:09.504Z,2.98
2019-01-09T02:24:56.518Z,2.99
2019-01-09T02:27:54.988Z,3.03
2019-01-09T02:30:52.955Z,3.04
2019-01-09T02:33:20.563Z,3.04
2019-01-09T02:35:48.708Z,3.01
2019-01-09T02:38:16.323Z,3.02
2019-01-09T02:40:44.039Z,2.99
2019-01-09T02:43:11.732Z,2.99
2019-01-09T02:45:39.480Z,2.96
2019-01-09T02:48:07.140Z,3.00
2019-01-09T02:50:34.885Z,3.00
2019-01-09T02:53:02.964Z,2.97
2019-01-09T02:55:30.749Z,2.98
2019-01-09T02:57:58.502Z,2.91
2019-01-09T03:00:26.058Z,2.89
2019-01-09T03:02:54.099Z,2.93
2019-01-09T03:05:21.683Z,2.92
2019-01-09T03:07:49.377Z,2.94
2019-01-09T03:10:16.992Z,2.97
2019-01-09T03:12:44.766Z,2.98
2019-01-09T03:15:12.482Z,3.03
2019-01-09T03:17:40.151Z,3.05
2019-01-09T03:20:07.867Z,2.98
2019-01-09T03:22:35.585Z,3.00
2019-01-09T03:25:03.447Z,2.97
2019-01-09T03:27:31.257Z,2.99
2019-01-09T03:29:59.072Z,2.95
2019-01-09T03:32:26.954Z,3.04
2019-01-09T03:34:54.677Z,3.06
2019-01-09T03:37:22.503Z,3.09
2019-01-09T03:39:50.209Z,3.09
2019-01-09T03:42:17.961Z,3.08
2019-01-09T03:44:45.709Z,3.05
2019-01-09T03:47:13.332Z,3.00
2019-01-09T03:49:41.079Z,3.02
2019-01-09T03:52:08.800Z,2.85
2019-01-09T03:54:36.448Z,2.98
2019-01-09T03:57:04.196Z,2.99
2019-01-09T03:59:31.953Z,2.97
2019-01-09T04:01:59.544Z,3.01
2019-01-09T04:04:27.251Z,2.96
2019-01-09T04:06:54.868Z,3.05
2019-01-09T04:09:22.581Z,3.05
2019-01-09T04:11:50.241Z,3.05
2019-01-09T04:14:17.964Z,3.09
2019-01-09T04:16:45.787Z,3.10
2019-01-09T04:19:13.436Z,3.11
2019-01-09T04:21:41.336Z,3.15
2019-01-09T04:24:09.082Z,3.18
2019-01-09T04:26:36.807Z,3.19
2019-01-09T04:29:04.631Z,3.24
2019-01-09T04:31:32.322Z,3.26
2019-01-09T04:34:00.095Z,3.27
2019-01-09T04:36:27.816Z,3.25
2019-01-09T04:38:56.611Z,3.25
2019-01-09T04:41:24.231Z,3.19
2019-01-09T04:43:51.892Z,3.17
2019-01-09T04:46:19.516Z,3.17
2019-01-09T04:48:47.141Z,3.18
2019-01-09T04:51:14.752Z,3.14
2019-01-09T04:53:42.499Z,3.21
2019-01-09T04:56:10.227Z,3.29
2019-01-09T04:58:37.922Z,3.29
2019-01-09T05:01:05.753Z,3.31
2019-01-09T05:03:33.423Z,3.36
2019-01-09T05:06:01.186Z,3.35
2019-01-09T05:08:28.923Z,3.31
2019-01-09T05:10:56.603Z,3.30
2019-01-09T05:13:24.238Z,3.28
2019-01-09T05:16:11.811Z,3.34
2019-01-09T05:18:39.500Z,3.29
2019-01-09T05:21:07.194Z,3.24
2019-01-09T05:23:35.023Z,3.17
2019-01-09T05:26:02.756Z,3.11
2019-01-09T05:28:30.413Z,3.09
2019-01-09T05:31:07.205Z,3.01
2019-01-09T05:33:27.591Z,3.01
2019-01-09T05:35:55.256Z,2.97
2019-01-09T05:38:26.324Z,2.91
2019-01-09T05:40:54.045Z,2.90
2019-01-09T05:43:23.902Z,2.93
2019-01-09T05:45:51.647Z,2.91
2019-01-09T05:48:19.477Z,2.99
2019-01-09T05:50:54.572Z,3.03
2019-01-09T05:53:22.351Z,3.03
2019-01-09T05:55:53.107Z,2.98
2019-01-09T05:58:42.266Z,2.99
2019-01-09T06:01:09.963Z,2.96
2019-01-09T06:03:37.587Z,2.90
2019-01-09T06:06:05.246Z,2.86
2019-01-09T06:08:32.928Z,2.84
2019-01-09T06:11:00.641Z,2.85
2019-01-09T06:13:28.357Z,2.78
2019-01-09T06:15:56.238Z,2.80
2019-01-09T06:18:23.998Z,2.82
2019-01-09T06:20:51.917Z,2.78
2019-01-09T06:23:19.851Z,2.79
2019-01-09T06:25:48.135Z,2.76
2019-01-09T06:28:15.951Z,2.78
2019-01-09T06:30:46.127Z,2.77
2019-01-09T06:33:13.866Z,2.75
2019-01-09T06:35:45.428Z,2.75
2019-01-09T06:38:13.322Z,2.76
2019-01-09T06:40:41.226Z,2.79
2019-01-09T06:43:30.572Z,2.76
2019-01-09T06:46:00.606Z,2.79
2019-01-09T06:48:28.291Z,2.82
2019-01-09T06:50:56.056Z,2.86
2019-01-09T06:53:36.387Z,2.94
2019-01-09T06:56:04.292Z,2.92
2019-01-09T06:59:31.987Z,2.93
2019-01-09T07:01:59.894Z,2.94
2019-01-09T07:04:33.670Z,2.96
2019-01-09T07:07:01.256Z,2.96
2019-01-09T07:09:28.706Z,2.99
2019-01-09T07:12:03.012Z,2.92
2019-01-09T07:14:30.391Z,2.94
2019-01-09T07:16:57.869Z,2.96
2019-01-09T07:19:25.656Z,2.94
2019-01-09T07:21:53.101Z,2.91
2019-01-09T07:24:20.701Z,2.87
2019-01-09T07:26:48.266Z,2.82
2019-01-09T07:29:15.981Z,2.82
2019-01-09T07:31:43.463Z,2.82
2019-01-09T07:34:10.840Z,2.76
2019-01-09T07:36:38.326Z,2.72
2019-01-09T07:39:07.630Z,2.66
2019-01-09T07:41:35.169Z,2.62
2019-01-09T07:44:02.607Z,2.58
2019-01-09T07:46:30.247Z,2.54
2019-01-09T07:48:57.636Z,2.55
2019-01-09T07:51:25.311Z,2.53
2019-01-09T07:53:52.796Z,2.53
2019-01-09T07:56:20.395Z,2.48
2019-01-09T07:58:47.976Z,2.47
2019-01-09T08:01:15.685Z,2.44
2019-01-09T08:03:43.332Z,2.43
2019-01-09T08:06:10.732Z,2.42
2019-01-09T08:08:38.190Z,2.43
2019-01-09T08:11:05.936Z,2.42
2019-01-09T08:13:33.460Z,2.41
2019-01-09T08:16:00.896Z,2.42
2019-01-09T08:18:28.437Z,2.33
2019-01-09T08:21:05.010Z,2.37
2019-01-09T08:23:25.466Z,2.41
2019-01-09T08:25:53.052Z,2.41
2019-01-09T08:28:23.610Z,2.43
2019-01-09T08:30:54.050Z,2.39
2019-01-09T08:33:21.712Z,2.43
2019-01-09T08:35:49.312Z,2.52
2019-01-09T08:38:17.051Z,2.51
2019-01-09T08:40:45.134Z,2.52
2019-01-09T08:43:13.072Z,2.53
2019-01-09T08:45:46.972Z,2.49
2019-01-09T08:48:14.571Z,2.52
2019-01-09T08:50:42.680Z,2.48
2019-01-09T08:53:10.946Z,2.48
2019-01-09T08:55:38.549Z,2.47
2019-01-09T08:58:06.471Z,2.43
2019-01-09T09:00:34.051Z,2.52
2019-01-09T09:03:01.952Z,2.53
2019-01-09T09:05:29.851Z,2.58
2019-01-09T09:08:02.166Z,2.65
2019-01-09T09:10:30.112Z,2.67
2019-01-09T09:12:57.726Z,2.64
2019-01-09T09:15:25.387Z,2.64
2019-01-09T09:17:54.291Z,2.65
2019-01-09T09:20:21.811Z,2.60
2019-01-09T09:22:52.254Z,2.51
2019-01-09T09:25:19.751Z,2.42
2019-01-09T09:27:48.371Z,2.59
2019-01-09T09:30:16.156Z,2.68
2019-01-09T09:32:43.811Z,2.70
2019-01-09T09:35:11.344Z,2.73
2019-01-09T09:37:39.052Z,2.73
2019-01-09T09:40:07.929Z,2.76
2019-01-09T09:42:35.656Z,2.75
2019-01-09T09:45:03.810Z,2.85
2019-01-09T09:47:31.411Z,2.92
2019-01-09T09:50:00.786Z,2.94
2019-01-09T09:52:28.535Z,3.02
2019-01-09T09:54:58.712Z,3.07
2019-01-09T09:57:34.630Z,3.13
2019-01-09T10:00:21.752Z,3.16
2019-01-09T10:03:22.736Z,3.13
2019-01-09T10:09:00.444Z,3.09
2019-01-09T10:11:54.742Z,3.13
2019-01-09T10:26:20.903Z,3.10
2019-01-09T10:29:35.330Z,3.00
2019-01-09T10:32:32.512Z,3.04
2019-01-09T10:35:43.103Z,3.22
2019-01-09T10:47:11.210Z,3.32
2019-01-09T10:50:28.310Z,3.34
2019-01-09T10:53:08.883Z,3.29
2019-01-09T11:00:39.490Z,3.30
2019-01-09T11:07:54.677Z,3.22
2019-01-09T11:14:39.795Z,3.19
2019-01-09T11:17:43.375Z,3.24
2019-01-09T11:20:19.258Z,3.24
2019-01-09T11:22:52.532Z,3.26
2019-01-09T11:25:29.153Z,3.32
2019-01-09T11:27:59.875Z,3.24
2019-01-09T11:30:28.363Z,3.27
2019-01-09T11:33:04.889Z,3.32
2019-01-09T11:35:37.270Z,3.34
2019-01-09T11:38:07.252Z,3.40
2019-01-09T11:40:44.471Z,3.43
2019-01-09T11:43:12.171Z,3.43
2019-01-09T11:45:40.049Z,3.52
2019-01-09T11:48:07.651Z,3.40
2019-01-09T11:50:53.991Z,3.42
2019-01-09T11:53:27.732Z,3.38
2019-01-09T11:55:55.598Z,3.34
2019-01-09T11:58:23.332Z,3.29
2019-01-09T12:00:56.291Z,3.26
2019-01-09T12:03:30.870Z,3.28
2019-01-09T12:06:20.261Z,3.42
2019-01-09T12:09:21.926Z,3.40
2019-01-09T12:11:50.251Z,3.33
2019-01-09T12:14:34.526Z,3.37
2019-01-09T12:17:08.571Z,3.33
2019-01-09T12:19:39.611Z,3.25
2019-01-09T12:22:34.270Z,3.22
2019-01-09T12:25:27.491Z,3.27
2019-01-09T12:28:14.666Z,3.18
2019-01-09T12:31:07.094Z,3.19
2019-01-09T12:33:39.331Z,3.17
2019-01-09T12:36:07.191Z,3.16
2019-01-09T12:38:35.010Z,3.25
2019-01-09T12:41:08.832Z,3.23
2019-01-09T12:43:36.651Z,3.12
2019-01-09T12:46:04.655Z,3.09
2019-01-09T16:19:36.894Z,2.29
2019-01-09T16:34:03.951Z,2.25
2019-01-09T16:37:05.200Z,2.24
2019-01-09T16:41:15.989Z,2.24
2019-01-09T16:43:51.640Z,2.32
2019-01-09T18:04:48.595Z,2.21
2019-01-09T19:14:10.179Z,2.13
2019-01-09T19:17:22.651Z,2.11
2019-01-09T19:31:51.239Z,2.12
2019-01-09T19:44:41.607Z,2.16
2019-01-09T19:47:58.054Z,2.20
2019-01-09T19:55:30.179Z,2.17
2019-01-09T19:58:43.134Z,2.21
2019-01-09T20:34:34.323Z,2.19
2019-01-09T20:53:44.750Z,2.16
2019-01-09T20:56:58.349Z,2.15
2019-01-09T20:59:11.802Z,2.12
2019-01-09T21:05:24.543Z,2.15
2019-01-09T21:08:04.664Z,2.19
2019-01-09T21:10:43.395Z,2.17
2019-01-09T21:17:22.950Z,2.25
2019-01-09T21:19:57.859Z,2.21
2019-01-09T21:39:19.514Z,2.28
2019-01-09T21:41:34.386Z,2.33
2019-01-09T21:44:02.656Z,2.33
2019-01-09T21:46:30.751Z,2.37
2019-01-09T21:48:58.785Z,2.34
2019-01-09T21:51:27.400Z,2.34
2019-01-09T21:53:55.441Z,2.24
2019-01-09T21:56:23.491Z,2.24
2019-01-09T21:58:51.685Z,2.22
2019-01-09T22:01:29.555Z,2.29
2019-01-09T22:03:57.330Z,2.36
2019-01-09T22:06:25.240Z,2.35
2019-01-09T22:08:53.165Z,2.25
2019-01-09T22:11:21.126Z,2.11
2019-01-09T22:13:49.030Z,2.10
2019-01-09T22:16:16.946Z,2.13
2019-01-09T22:18:44.936Z,2.14
2019-01-09T22:21:12.800Z,2.09
2019-01-09T22:23:40.750Z,2.20
2019-01-09T22:26:08.365Z,2.14
2019-01-09T22:28:36.265Z,2.14
2019-01-09T22:31:04.185Z,2.13
2019-01-09T22:33:31.913Z,2.10
2019-01-09T22:36:05.380Z,2.10
2019-01-09T22:38:32.901Z,2.08
2019-01-09T22:41:00.360Z,2.09
2019-01-09T22:43:27.970Z,2.04
2019-01-09T22:45:55.445Z,2.10
2019-01-09T22:48:22.995Z,1.99
2019-01-09T22:50:50.386Z,2.02
2019-01-09T22:53:17.855Z,2.09
2019-01-09T22:55:45.300Z,2.07
2019-01-09T22:58:14.070Z,2.04
2019-01-09T23:00:58.567Z,1.98
2019-01-09T23:03:26.076Z,1.90
2019-01-09T23:05:54.513Z,1.96
2019-01-09T23:08:21.973Z,1.95
2019-01-09T23:10:54.402Z,1.96
2019-01-09T23:13:18.950Z,1.93
2019-01-09T23:15:46.433Z,1.93
2019-01-09T23:18:13.871Z,1.92
2019-01-09T23:20:41.290Z,1.89
2019-01-09T23:23:08.950Z,1.90
2019-01-09T23:25:36.605Z,1.94
2019-01-09T23:28:04.155Z,1.87
2019-01-09T23:30:31.671Z,1.88
2019-01-09T23:32:59.150Z,1.85
2019-01-09T23:35:26.680Z,1.89
2019-01-09T23:37:56.020Z,1.88
2019-01-09T23:40:23.505Z,1.97
2019-01-09T23:42:52.124Z,1.93
2019-01-09T23:45:19.591Z,1.96
2019-01-09T23:47:46.988Z,1.92
2019-01-09T23:50:14.592Z,1.98
2019-01-09T23:52:41.975Z,1.99
2019-01-09T23:55:09.672Z,1.96
2019-01-09T23:57:37.065Z,1.96
